Time;durP1;ratioP1;P1;durP2;ratioP2;P2;SDS_P1;SDS_P2;PMS_P1;PMS_P2;Temp;Humidity;BMP_temperature;BMP_pressure;BME280_temperature;BME280_humidity;BME280_pressure;Samples;Min_cycle;Max_cycle;Signal;HPM_P1;HPM_P2
2022/10/16 00:01:30;;;;;;;16.70;13.07;;;;;;;5.28;73.97;101493.20;1655728;85;21072;-72
2022/10/16 00:03:59;;;;;;;17.00;13.23;;;;;;;5.22;74.22;101496.69;1653104;85;21040;-73
2022/10/16 00:06:28;;;;;;;15.00;12.43;;;;;;;5.18;74.25;101493.95;1621375;86;21524;-71
2022/10/16 00:08:56;;;;;;;15.50;13.47;;;;;;;5.14;74.39;101499.13;1637915;85;21010;-71
2022/10/16 00:11:36;;;;;;;17.53;11.87;;;;;;;5.10;74.63;101494.20;1631250;85;21053;-72
2022/10/16 00:14:08;;;;;;;17.30;12.80;;;;;;;5.07;74.59;101496.62;1697597;83;21039;-72
2022/10/16 00:16:34;;;;;;;17.10;11.50;;;;;;;5.02;74.95;101500.11;1673952;84;21039;-71
2022/10/16 00:19:03;;;;;;;16.87;11.37;;;;;;;4.99;74.98;101497.70;1674920;84;21567;-71
2022/10/16 00:21:31;;;;;;;16.63;10.97;;;;;;;4.59;75.25;101438.83;1648772;86;21530;-71
2022/10/16 00:24:03;;;;;;;16.10;11.50;;;;;;;4.92;75.40;101500.02;1651851;85;21049;-71
2022/10/16 00:26:31;;;;;;;13.97;11.53;;;;;;;4.88;75.56;101500.73;1649524;85;21541;-71
2022/10/16 00:29:00;;;;;;;17.33;11.63;;;;;;;4.84;75.70;101501.09;1664284;84;21041;-71
2022/10/16 00:31:27;;;;;;;13.27;11.40;;;;;;;4.80;75.89;101497.87;1697033;84;21096;-70
2022/10/16 00:33:53;;;;;;;18.43;11.77;;;;;;;4.77;76.15;101495.95;1662346;85;20983;-71
2022/10/16 00:36:25;;;;;;;17.43;12.70;;;;;;;4.73;76.34;101504.60;1631278;86;21564;-71
2022/10/16 00:38:55;;;;;;;16.77;10.87;;;;;;;4.70;76.57;101503.52;1640329;86;21024;-71
2022/10/16 00:41:24;;;;;;;16.90;11.10;;;;;;;4.67;76.63;101501.10;1647087;85;21085;-71
2022/10/16 00:43:54;;;;;;;19.63;11.77;;;;;;;4.65;76.69;101508.31;1679425;84;21068;-73
2022/10/16 00:46:35;;;;;;;23.17;11.07;;;;;;;4.61;76.69;101505.56;1676564;84;21014;-72
2022/10/16 00:49:12;;;;;;;15.33;11.10;;;;;;;4.60;76.68;101506.05;1674100;84;21061;-70
2022/10/16 00:51:43;;;;;;;14.20;10.47;;;;;;;4.60;76.63;101511.33;1644663;86;21089;-70
2022/10/16 00:54:14;;;;;;;12.97;10.83;;;;;;;4.61;76.59;101511.67;1635167;86;21052;-71
2022/10/16 00:56:42;;;;;;;13.63;11.47;;;;;;;4.61;76.53;101516.13;1703042;83;21523;-70
2022/10/16 00:59:17;;;;;;;15.73;11.40;;;;;;;4.61;76.53;101524.87;1657649;85;21034;-71
2022/10/16 01:01:43;;;;;;;16.00;12.10;;;;;;;4.62;76.45;101526.57;1690030;83;20978;-72
2022/10/16 01:04:09;;;;;;;15.88;11.38;;;;;;;4.65;76.31;101528.98;1670892;83;21688;-71
2022/10/16 01:06:49;;;;;;;18.80;11.27;;;;;;;4.66;76.17;101525.85;1672625;84;21059;-71
2022/10/16 01:09:31;;;;;;;14.70;10.67;;;;;;;4.65;76.06;101526.34;1694239;82;21033;-72
2022/10/16 01:12:12;;;;;;;16.57;11.00;;;;;;;4.67;75.99;101519.59;1713721;82;21010;-71
2022/10/16 01:14:50;;;;;;;12.83;11.00;;;;;;;4.69;75.87;101525.63;1672640;83;21055;-70
2022/10/16 01:17:34;;;;;;;12.80;10.43;;;;;;;4.73;75.84;101527.52;1656293;85;21539;-72
2022/10/16 01:20:19;;;;;;;16.23;9.70;;;;;;;4.75;75.73;101525.13;1681003;83;21053;-71
2022/10/16 01:23:06;;;;;;;13.33;10.30;;;;;;;4.76;75.66;101522.00;1678263;83;21614;-73
2022/10/16 01:25:45;;;;;;;14.37;10.63;;;;;;;4.76;75.57;101529.44;1661085;85;21065;-70
2022/10/16 01:28:13;;;;;;;15.17;10.67;;;;;;;4.73;75.55;101531.47;1670605;85;21042;-71
2022/10/16 01:30:42;;;;;;;14.83;11.20;;;;;;;4.70;75.66;101533.89;1694617;83;21540;-71
2022/10/16 01:33:23;;;;;;;15.40;10.73;;;;;;;4.72;75.65;101533.77;1662718;84;21120;-71
2022/10/16 01:36:00;;;;;;;11.63;9.77;;;;;;;4.74;75.50;101539.77;1681995;84;21087;-71
2022/10/16 01:38:38;;;;;;;11.33;10.13;;;;;;;4.71;75.58;101540.00;1668011;84;21057;-71
2022/10/16 01:41:25;;;;;;;15.33;10.57;;;;;;;4.65;75.67;101544.83;1649289;85;21085;-71
2022/10/16 01:44:10;;;;;;;13.93;11.37;;;;;;;4.63;75.78;101542.79;1639145;85;21077;-71
2022/10/16 01:46:41;;;;;;;11.67;10.20;;;;;;;4.62;75.89;101546.86;1644790;85;21076;-71
2022/10/16 01:49:10;;;;;;;14.77;11.27;;;;;;;4.57;76.02;101543.24;1681252;83;20973;-71
2022/10/16 01:51:37;;;;;;;17.33;10.93;;;;;;;4.53;76.00;101551.54;1695984;84;21080;-71
2022/10/16 01:54:07;;;;;;;16.83;10.40;;;;;;;4.47;76.22;101552.37;1703323;84;21459;-70
2022/10/16 01:56:35;;;;;;;11.73;10.53;;;;;;;4.45;76.49;101547.69;1701246;83;21146;-71
2022/10/16 01:59:11;;;;;;;14.80;11.13;;;;;;;4.41;76.55;101554.66;1667125;85;21066;-71
2022/10/16 02:01:42;;;;;;;14.37;11.10;;;;;;;4.32;76.65;101549.59;1684020;84;21638;-71
2022/10/16 02:04:17;;;;;;;14.13;11.73;;;;;;;4.25;77.03;101555.80;1673182;84;20970;-74
2022/10/16 02:06:45;;;;;;;16.70;10.77;;;;;;;4.22;77.58;101549.92;1705438;84;21085;-71
2022/10/16 02:09:12;;;;;;;13.07;10.43;;;;;;;4.18;77.70;101556.39;1710101;82;21005;-71
2022/10/16 02:11:38;;;;;;;13.98;11.28;;;;;;;4.12;77.81;101554.23;1714441;82;21498;-72
2022/10/16 02:14:07;;;;;;;15.90;10.33;;;;;;;4.04;78.11;101555.64;1715307;82;21097;-73
2022/10/16 02:16:40;;;;;;;17.77;12.13;;;;;;;3.99;78.46;101560.42;1712406;82;21025;-72
2022/10/16 02:19:09;;;;;;;14.30;11.50;;;;;;;3.95;78.82;101565.57;1722880;82;20987;-73
2022/10/16 02:22:04;;;;;;;14.90;11.53;;;;;;;3.92;78.91;101566.27;1719028;82;20947;-71
2022/10/16 02:24:59;;;;;;;15.90;9.40;;;;;;;3.87;79.05;101567.95;1719567;82;21164;-70
2022/10/16 02:27:38;;;;;;;18.67;12.07;;;;;;;3.81;79.17;101565.30;1674504;83;22273;-72
2022/10/16 02:30:13;;;;;;;19.63;12.07;;;;;;;3.78;79.38;101567.31;1708594;82;21059;-72
2022/10/16 02:32:43;;;;;;;18.67;11.93;;;;;;;3.78;79.47;101568.63;1704453;82;21545;-70
2022/10/16 02:35:10;;;;;;;15.77;11.63;;;;;;;3.80;79.51;101570.67;1708100;82;21033;-71
2022/10/16 02:37:39;;;;;;;17.53;11.60;;;;;;;3.82;79.56;101572.72;1707628;82;21149;-71
2022/10/16 02:40:08;;;;;;;16.23;11.67;;;;;;;3.83;79.60;101577.05;1681940;83;21134;-73
2022/10/16 02:42:37;;;;;;;13.85;11.75;;;;;;;3.83;79.59;101572.61;1703607;82;21042;-73
2022/10/16 02:45:06;;;;;;;19.23;13.57;;;;;;;3.83;79.57;101576.57;1703566;82;21041;-70
2022/10/16 02:47:33;;;;;;;15.67;11.90;;;;;;;3.84;79.62;101579.58;1697843;82;21041;-70
2022/10/16 02:50:00;;;;;;;13.70;11.10;;;;;;;3.84;79.63;101578.72;1692499;83;21026;-72
2022/10/16 02:52:27;;;;;;;14.95;9.50;;;;;;;3.85;79.67;101580.41;1691751;82;21092;-72
2022/10/16 02:54:53;;;;;;;14.13;10.45;;;;;;;3.87;79.61;101578.50;1677001;84;21042;-70
2022/10/16 02:57:19;;;;;;;16.60;10.88;;;;;;;3.90;79.69;101579.61;1693350;82;21025;-73
2022/10/16 02:59:45;;;;;;;13.55;10.08;;;;;;;3.92;79.68;101582.97;1725044;82;22106;-72
2022/10/16 03:02:11;;;;;;;14.18;10.20;;;;;;;3.95;79.54;101581.40;1640199;85;21050;-71
2022/10/16 03:04:38;;;;;;;16.52;10.03;;;;;;;3.99;79.46;101588.12;1654190;84;21053;-71
2022/10/16 03:07:04;;;;;;;17.48;11.53;;;;;;;4.03;79.36;101589.60;1709399;82;21002;-73
2022/10/16 03:09:30;;;;;;;11.18;9.63;;;;;;;4.06;79.17;101595.95;1705384;82;21050;-72
2022/10/16 03:11:56;;;;;;;13.13;9.68;;;;;;;4.11;79.02;101598.26;1706069;82;21034;-71
2022/10/16 03:14:23;;;;;;;12.20;9.87;;;;;;;4.12;78.87;101589.86;1711926;82;21330;-71
2022/10/16 03:16:51;;;;;;;12.97;10.00;;;;;;;4.14;78.73;101602.45;1703836;82;21091;-73
2022/10/16 03:19:19;;;;;;;11.30;9.90;;;;;;;4.13;78.64;101599.47;1706821;82;21639;-71
2022/10/16 03:21:46;;;;;;;18.90;10.35;;;;;;;4.14;78.62;101605.09;1704013;82;21560;-72
2022/10/16 03:24:12;;;;;;;14.37;10.63;;;;;;;4.13;78.64;101598.98;1698362;82;21017;-71
2022/10/16 03:26:38;;;;;;;13.00;9.15;;;;;;;4.14;78.60;101598.49;1698961;82;21480;-72
2022/10/16 03:29:05;;;;;;;13.08;9.60;;;;;;;4.12;78.59;101594.64;1665292;84;21042;-71
2022/10/16 03:31:31;;;;;;;15.60;10.13;;;;;;;4.12;78.67;101597.77;1701151;82;21708;-70
2022/10/16 03:33:57;;;;;;;13.65;9.30;;;;;;;4.10;78.62;101602.67;1696849;82;20990;-71
2022/10/16 03:36:23;;;;;;;16.10;10.32;;;;;;;4.10;78.70;101602.67;1707209;82;21228;-71
2022/10/16 03:38:49;;;;;;;10.90;9.60;;;;;;;4.13;78.72;101612.66;1704315;82;21580;-71
2022/10/16 03:41:16;;;;;;;;;;;;;;;4.13;78.65;101611.34;1707094;82;20975;-74
2022/10/16 03:43:42;;;;;;;12.00;9.23;;;;;;;4.14;78.58;101616.97;1722953;82;20156;-71
2022/10/16 03:46:10;;;;;;;19.40;9.83;;;;;;;4.06;78.58;101610.45;1681099;82;21033;-71
2022/10/16 03:48:36;;;;;;;13.22;9.58;;;;;;;4.06;78.67;101612.27;1682086;84;21007;-71
2022/10/16 03:51:03;;;;;;;13.90;10.35;;;;;;;4.07;78.82;101611.33;1678167;84;21050;-70
2022/10/16 03:53:29;;;;;;;14.38;9.35;;;;;;;4.06;78.84;101607.82;1672248;84;21570;-71
2022/10/16 03:55:55;;;;;;;14.07;10.15;;;;;;;4.06;78.80;101606.98;1677293;84;21062;-70
2022/10/16 03:58:22;;;;;;;14.77;9.97;;;;;;;4.06;78.91;101610.95;1704093;83;21066;-71
2022/10/16 04:00:48;;;;;;;14.38;10.55;;;;;;;4.06;78.91;101605.18;1683843;84;21109;-73
2022/10/16 04:03:14;;;;;;;14.40;10.10;;;;;;;4.06;78.88;101607.82;1620257;87;21261;-73
2022/10/16 04:05:40;;;;;;;12.65;10.55;;;;;;;4.06;78.88;101604.34;1670837;84;21557;-72
2022/10/16 04:08:07;;;;;;;11.73;10.50;;;;;;;4.06;78.94;101616.22;1636558;85;22255;-72
2022/10/16 04:10:32;;;;;;;12.63;10.85;;;;;;;4.05;78.98;101616.71;1659522;84;21055;-73
2022/10/16 04:12:58;;;;;;;14.18;9.78;;;;;;;4.04;78.99;101611.55;1639579;86;21054;-71
2022/10/16 04:15:25;;;;;;;16.97;9.90;;;;;;;4.01;79.05;101612.63;1666793;85;21033;-72
2022/10/16 04:17:54;;;;;;;12.07;10.47;;;;;;;4.00;79.21;101612.73;1672697;84;21083;-71
2022/10/16 04:20:21;;;;;;;15.07;11.97;;;;;;;3.96;79.30;101609.48;1674006;84;21118;-71
2022/10/16 04:22:47;;;;;;;14.75;12.40;;;;;;;3.96;79.37;101610.80;1686841;84;21071;-73
2022/10/16 04:25:14;;;;;;;22.20;13.83;;;;;;;3.96;79.43;101615.23;1654365;85;21002;-72
2022/10/16 04:27:41;;;;;;;15.63;13.13;;;;;;;3.95;79.50;101617.02;1666378;84;21044;-71
2022/10/16 04:30:09;;;;;;;17.60;14.63;;;;;;;3.95;79.53;101621.45;1676496;83;21024;-72
2022/10/16 04:32:35;;;;;;;17.70;13.10;;;;;;;3.96;79.62;101621.34;1669638;84;21028;-71
2022/10/16 04:35:02;;;;;;;15.68;11.83;;;;;;;3.95;79.73;101623.61;1657346;85;21570;-72
2022/10/16 04:37:29;;;;;;;19.83;12.67;;;;;;;3.94;79.99;101624.58;1664049;84;21288;-72
2022/10/16 04:39:55;;;;;;;20.52;13.30;;;;;;;3.99;80.10;101630.33;1638930;87;21077;-70
2022/10/16 04:42:21;;;;;;;16.12;13.53;;;;;;;4.12;80.31;101632.91;1667748;84;21041;-70
2022/10/16 04:44:48;;;;;;;;;;;;;;;4.36;80.29;101643.91;1639010;87;21086;-71
2022/10/16 04:47:14;;;;;;;14.97;11.03;;;;;;;4.62;79.57;101637.48;1637282;87;20174;-71
2022/10/16 04:49:40;;;;;;;30.15;11.83;;;;;;;4.86;78.51;101644.01;1698050;84;21471;-68
2022/10/16 04:52:08;;;;;;;18.50;12.78;;;;;;;5.22;77.78;101646.53;1681695;84;21160;-70
2022/10/16 04:54:35;;;;;;;16.10;13.80;;;;;;;5.62;76.59;101647.31;1664381;84;21054;-70
2022/10/16 04:57:01;;;;;;;15.72;13.43;;;;;;;5.97;74.90;101650.23;1665699;84;21186;-70
2022/10/16 04:59:27;;;;;;;19.77;15.10;;;;;;;6.24;73.10;101645.80;1651795;85;21067;-84
2022/10/16 05:01:53;;;;;;;16.97;13.85;;;;;;;6.49;72.17;101660.47;1649615;85;21628;-69
2022/10/16 05:04:19;;;;;;;14.07;12.73;;;;;;;6.85;71.16;101660.13;1643875;85;21685;-70
2022/10/16 05:06:47;;;;;;;14.68;12.15;;;;;;;7.33;69.14;101660.34;1659541;85;21623;-71
2022/10/16 05:09:14;;;;;;;14.87;13.30;;;;;;;7.82;65.93;101663.10;1649720;85;21078;-70
2022/10/16 05:11:40;;;;;;;17.35;13.38;;;;;;;8.26;65.09;101666.18;1646782;85;21018;-71
2022/10/16 05:14:08;;;;;;;22.27;15.10;;;;;;;8.78;63.47;101668.53;1621921;85;21042;-70
2022/10/16 05:16:34;;;;;;;;;;;;;;;9.30;61.45;101666.72;1661480;85;21156;-73
2022/10/16 05:19:02;;;;;;;15.98;13.50;;;;;;;9.81;59.60;101671.13;1623092;87;20141;-71
2022/10/16 05:21:28;;;;;;;;;;;;;;;10.28;57.99;101664.23;1688151;82;21545;-71
2022/10/16 05:23:55;;;;;;;18.03;12.27;;;;;;;10.76;55.73;101668.30;1683372;84;20180;-70
2022/10/16 05:26:21;;;;;;;17.35;13.03;;;;;;;11.10;54.55;101671.48;1685917;83;21085;-71
2022/10/16 05:28:47;;;;;;;13.80;11.93;;;;;;;11.18;53.23;101617.31;1682680;84;21081;-72
2022/10/16 05:31:13;;;;;;;15.63;11.25;;;;;;;11.97;51.49;101681.98;1688114;83;21029;-71
2022/10/16 05:33:39;;;;;;;13.28;11.93;;;;;;;12.37;50.50;101685.18;1691974;83;21548;-71
2022/10/16 05:36:08;;;;;;;18.05;12.73;;;;;;;12.80;48.83;101687.66;1695831;83;21004;-72
2022/10/16 05:38:37;;;;;;;14.78;10.32;;;;;;;13.17;47.92;101691.60;1655370;84;21608;-71
2022/10/16 05:41:05;;;;;;;17.07;12.30;;;;;;;13.50;46.62;101688.81;1676672;84;21527;-70
2022/10/16 05:43:32;;;;;;;12.90;11.57;;;;;;;13.78;45.66;101697.21;1695278;83;21138;-73
2022/10/16 05:46:04;;;;;;;17.20;12.05;;;;;;;14.01;44.96;101693.20;1661441;84;21053;-70
2022/10/16 05:48:32;;;;;;;13.83;12.47;;;;;;;14.17;43.55;101700.32;1685179;83;21093;-70
2022/10/16 05:51:02;;;;;;;17.73;12.80;;;;;;;14.14;44.17;101704.17;1702061;83;20959;-70
2022/10/16 05:53:31;;;;;;;13.80;12.10;;;;;;;14.11;43.70;101705.89;1633912;84;21010;-74
2022/10/16 05:55:58;;;;;;;14.55;11.83;;;;;;;14.07;43.71;101703.73;1641687;86;21013;-76
2022/10/16 05:58:28;;;;;;;15.05;12.07;;;;;;;14.14;43.68;101706.03;1637707;85;21080;-75
2022/10/16 06:01:07;;;;;;;15.65;12.53;;;;;;;13.99;43.20;101712.66;1629690;86;21085;-76
2022/10/16 06:03:35;;;;;;;17.17;12.30;;;;;;;13.39;44.27;101714.13;1651211;85;21053;-75
2022/10/16 06:06:13;;;;;;;15.00;12.30;;;;;;;12.57;45.28;101715.62;1704281;82;20998;-74
2022/10/16 06:08:42;;;;;;;14.60;10.50;;;;;;;11.66;46.94;101722.63;1698022;82;21057;-76
2022/10/16 06:11:11;;;;;;;16.93;11.68;;;;;;;10.82;49.34;101725.51;1679663;84;21089;-79
2022/10/16 06:13:40;;;;;;;21.97;13.18;;;;;;;10.24;51.06;101733.48;1678957;84;21080;-74
2022/10/16 06:16:09;;;;;;;14.90;12.00;;;;;;;9.84;52.52;101739.56;1651158;85;21549;-74
2022/10/16 06:18:39;;;;;;;18.77;12.40;;;;;;;9.50;54.33;101739.33;1674460;84;21022;-76
2022/10/16 06:21:18;;;;;;;13.47;12.00;;;;;;;9.16;55.38;101740.70;1674715;84;21487;-76
2022/10/16 06:23:46;;;;;;;19.70;12.33;;;;;;;8.82;57.07;101736.88;1671322;84;21052;-80
2022/10/16 06:26:16;;;;;;;21.10;12.60;;;;;;;8.48;58.18;101741.31;1644521;84;21127;-79
2022/10/16 06:28:44;;;;;;;14.90;11.17;;;;;;;8.30;59.62;101744.61;1663584;84;21634;-73
2022/10/16 06:31:11;;;;;;;13.00;11.65;;;;;;;8.20;60.83;101747.77;1667803;84;21007;-75
2022/10/16 06:33:40;;;;;;;12.97;11.00;;;;;;;8.16;61.17;101754.33;1650713;84;21047;-80
2022/10/16 06:36:10;;;;;;;17.40;12.63;;;;;;;8.11;61.96;101755.23;1671047;85;21124;-74
2022/10/16 06:38:38;;;;;;;14.50;11.47;;;;;;;8.08;62.29;101762.13;1680675;84;21072;-71
2022/10/16 06:41:07;;;;;;;14.27;12.17;;;;;;;7.99;62.41;101767.30;1652354;83;20999;-72
2022/10/16 06:43:36;;;;;;;17.10;12.67;;;;;;;7.84;63.65;101763.34;1704139;82;21079;-73
2022/10/16 06:46:07;;;;;;;17.67;13.20;;;;;;;7.76;63.79;101767.14;1700408;82;21121;-71
2022/10/16 06:48:34;;;;;;;17.30;12.97;;;;;;;7.73;64.21;101767.44;1705988;82;21513;-72
2022/10/16 06:51:03;;;;;;;;;;;;;;;7.78;64.06;101766.55;1697411;82;20986;-70
2022/10/16 06:53:33;;;;;;;16.43;12.30;;;;;;;7.82;64.78;101761.78;1695354;82;20166;-74
2022/10/16 06:56:12;;;;;;;19.47;13.23;;;;;;;7.78;64.67;101764.73;1703977;82;21456;-70
2022/10/16 06:58:39;;;;;;;16.83;13.23;;;;;;;7.84;64.35;101763.84;1697907;82;21579;-70
2022/10/16 07:01:07;;;;;;;20.37;13.90;;;;;;;7.90;64.45;101762.80;1701210;82;21029;-70
2022/10/16 07:03:40;;;;;;;16.27;12.57;;;;;;;7.98;64.44;101765.60;1698358;82;21045;-70
2022/10/16 07:06:09;;;;;;;13.57;11.93;;;;;;;8.10;63.98;101770.33;1700664;82;21089;-71
2022/10/16 07:08:40;;;;;;;19.33;12.63;;;;;;;8.15;64.01;101765.92;1716213;82;21117;-70
2022/10/16 07:11:11;;;;;;;13.53;11.60;;;;;;;8.19;63.59;101765.52;1736705;81;21036;-71
2022/10/16 07:13:41;;;;;;;15.83;9.87;;;;;;;8.30;63.59;101764.53;1723126;82;21032;-74
2022/10/16 07:16:19;;;;;;;13.20;9.93;;;;;;;8.38;63.22;101761.19;1728429;82;21004;-70
2022/10/16 07:18:48;;;;;;;13.67;10.93;;;;;;;8.48;63.15;101759.92;1720787;82;21048;-74
2022/10/16 07:21:25;;;;;;;10.77;8.57;;;;;;;8.59;62.48;101763.77;1720666;82;21178;-72
2022/10/16 07:23:53;;;;;;;12.20;8.23;;;;;;;8.67;61.58;101765.72;1701172;82;21519;-74
2022/10/16 07:26:20;;;;;;;11.20;8.30;;;;;;;8.76;61.63;101771.02;1696433;82;22106;-72
2022/10/16 07:28:47;;;;;;;12.07;8.00;;;;;;;8.88;61.15;101771.70;1707112;82;21121;-73
2022/10/16 07:31:16;;;;;;;9.35;8.05;;;;;;;9.01;60.89;101771.41;1696573;82;21030;-73
2022/10/16 07:33:45;;;;;;;9.20;8.23;;;;;;;9.15;60.68;101778.08;1702033;82;21706;-72
2022/10/16 07:36:15;;;;;;;12.20;7.67;;;;;;;9.26;59.71;101779.25;1719575;82;21100;-74
2022/10/16 07:38:42;;;;;;;11.07;7.27;;;;;;;9.38;59.08;101772.42;1714514;82;21120;-74
2022/10/16 07:41:17;;;;;;;8.57;7.23;;;;;;;9.46;58.91;101777.88;1708670;82;21068;-75
2022/10/16 07:43:52;;;;;;;13.00;8.47;;;;;;;9.53;58.61;101778.47;1688438;82;21132;-72
2022/10/16 07:46:21;;;;;;;13.43;8.83;;;;;;;9.63;58.25;101778.43;1711201;82;21651;-72
2022/10/16 07:48:48;;;;;;;10.80;7.87;;;;;;;9.75;57.92;101773.23;1706309;82;21049;-72
2022/10/16 07:51:21;;;;;;;11.90;8.57;;;;;;;9.81;56.90;101789.63;1705675;82;21028;-76
2022/10/16 07:53:48;;;;;;;10.40;8.40;;;;;;;9.75;56.29;101779.90;1705196;82;20970;-72
2022/10/16 07:56:17;;;;;;;12.70;10.13;;;;;;;9.74;57.02;101773.41;1701649;82;21049;-73
2022/10/16 07:58:44;;;;;;;8.53;7.73;;;;;;;9.80;57.34;101775.47;1676162;84;21086;-72
2022/10/16 08:01:14;;;;;;;8.07;7.37;;;;;;;9.89;56.81;101769.27;1685971;83;21090;-71
2022/10/16 08:03:48;;;;;;;10.67;7.87;;;;;;;9.95;56.00;101769.16;1690855;83;20982;-72
2022/10/16 08:06:16;;;;;;;11.00;8.40;;;;;;;9.97;55.68;101772.52;1728011;81;21727;-73
2022/10/16 08:08:42;;;;;;;12.43;8.70;;;;;;;9.97;55.78;101771.18;1719463;81;21088;-72
2022/10/16 08:11:09;;;;;;;10.55;8.98;;;;;;;10.02;55.99;101772.05;1713422;82;21010;-72
2022/10/16 08:13:37;;;;;;;10.30;9.20;;;;;;;10.07;55.86;101779.94;1719377;81;21089;-75
2022/10/16 08:16:07;;;;;;;10.63;9.53;;;;;;;10.03;55.22;101779.06;1736916;81;21021;-73
2022/10/16 08:18:33;;;;;;;12.50;7.80;;;;;;;10.01;55.33;101774.39;1734712;81;21065;-77
2022/10/16 08:21:01;;;;;;;10.23;8.50;;;;;;;9.96;54.67;101770.82;1726241;81;21081;-73
2022/10/16 08:23:28;;;;;;;11.43;7.73;;;;;;;9.99;55.57;101772.37;1712381;81;21069;-71
2022/10/16 08:25:57;;;;;;;8.47;7.57;;;;;;;10.06;55.42;101764.12;1723247;81;21024;-76
2022/10/16 08:28:23;;;;;;;13.73;10.03;;;;;;;10.18;55.12;101764.23;1698629;82;21721;-74
2022/10/16 08:30:49;;;;;;;11.68;8.45;;;;;;;10.32;55.21;101762.43;1716051;81;21045;-72
2022/10/16 08:33:16;;;;;;;9.48;8.53;;;;;;;10.45;54.60;101759.86;1733139;81;21175;-72
2022/10/16 08:35:41;;;;;;;11.97;8.98;;;;;;;10.56;53.32;101768.96;1724763;81;21033;-72
2022/10/16 08:38:09;;;;;;;8.53;7.10;;;;;;;10.64;52.88;101769.52;1733866;82;21037;-72
2022/10/16 08:40:37;;;;;;;13.70;7.67;;;;;;;10.64;52.86;101767.72;1721735;81;21615;-74
2022/10/16 08:43:21;;;;;;;14.40;8.30;;;;;;;10.64;52.58;101757.53;1732562;81;21039;-74
2022/10/16 08:46:26;;;;;;;9.93;7.23;;;;;;;10.66;53.10;101756.88;1735290;82;21062;-75
2022/10/16 08:48:59;;;;;;;6.77;5.37;;;;;;;10.76;52.97;101766.14;1733256;81;21002;-87
2022/10/16 08:51:32;;;;;;;7.40;6.70;;;;;;;10.81;51.75;101761.16;1726654;81;21049;-85
2022/10/16 08:54:26;;;;;;;7.20;5.70;;;;;;;10.88;51.74;101760.89;1722841;81;21573;-85
2022/10/16 08:57:03;;;;;;;8.10;5.13;;;;;;;10.92;51.72;101767.58;1723305;81;21550;-83
2022/10/16 08:59:31;;;;;;;9.30;5.83;;;;;;;11.03;51.47;101761.16;1719299;81;21014;-85
2022/10/16 09:01:59;;;;;;;7.03;6.17;;;;;;;11.04;51.67;101744.17;1717308;82;21620;-81
2022/10/16 09:04:52;;;;;;;7.67;6.10;;;;;;;11.18;51.17;101760.92;1675043;84;21530;-84
2022/10/16 09:07:34;;;;;;;5.90;5.30;;;;;;;11.17;51.64;101763.74;1661195;84;21010;-84
2022/10/16 09:10:26;;;;;;;6.37;4.87;;;;;;;11.19;52.10;101765.75;1635020;85;21025;-86
2022/10/16 09:13:12;;;;;;;6.13;5.13;;;;;;;11.21;51.16;101760.62;1656149;83;21020;-82
2022/10/16 09:16:18;;;;;;;5.13;3.73;;;;;;;11.30;50.98;101754.81;1624131;87;21074;-76
2022/10/16 09:19:14;;;;;;;4.77;4.13;;;;;;;11.42;50.57;101752.22;1641198;85;21076;-75
2022/10/16 09:21:47;;;;;;;2.93;2.63;;;;;;;11.53;49.24;101749.78;1641543;85;21122;-74
2022/10/16 09:24:24;;;;;;;3.63;2.67;;;;;;;11.58;47.91;101751.95;1674132;84;21698;-72
2022/10/16 09:26:50;;;;;;;3.83;2.52;;;;;;;11.59;47.21;101761.15;1673669;84;21065;-73
2022/10/16 09:29:24;;;;;;;4.78;2.60;;;;;;;11.58;47.17;101771.48;1694199;82;21047;-76
2022/10/16 09:31:53;;;;;;;2.77;1.93;;;;;;;11.59;46.91;101765.16;1704372;82;21023;-74
2022/10/16 09:34:36;;;;;;;2.55;2.33;;;;;;;11.61;47.05;101760.48;1647529;85;21072;-74
2022/10/16 09:37:07;;;;;;;2.70;2.10;;;;;;;11.66;46.96;101754.68;1672397;84;21029;-74
2022/10/16 09:39:53;;;;;;;3.93;3.57;;;;;;;11.72;47.02;101762.05;1665607;84;21042;-77
2022/10/16 09:42:33;;;;;;;3.83;2.60;;;;;;;11.75;46.87;101747.52;1645336;85;21565;-77
2022/10/16 09:44:59;;;;;;;3.35;3.02;;;;;;;11.72;47.18;101751.36;1710774;82;20979;-76
2022/10/16 09:47:27;;;;;;;;;;;;;;;11.73;47.34;101749.52;1710041;82;21094;-75
2022/10/16 09:50:05;;;;;;;2.63;2.40;;;;;;;11.79;47.26;101748.38;1705822;82;20497;-74
2022/10/16 09:52:33;;;;;;;3.67;2.93;;;;;;;11.83;47.43;101744.38;1681943;82;21640;-72
2022/10/16 09:55:14;;;;;;;5.57;3.30;;;;;;;11.88;46.98;101738.06;1703581;82;21098;-72
2022/10/16 09:57:54;;;;;;;3.77;3.35;;;;;;;11.90;47.10;101738.41;1686700;82;21515;-71
2022/10/16 10:00:24;;;;;;;5.95;3.70;;;;;;;11.92;46.83;101731.06;1677832;84;21097;-72
2022/10/16 10:02:53;;;;;;;6.22;3.52;;;;;;;11.91;47.16;101729.41;1645610;85;21176;-71
2022/10/16 10:05:23;;;;;;;3.50;3.17;;;;;;;11.97;47.24;101722.08;1677515;84;21041;-73
2022/10/16 10:08:05;;;;;;;3.23;2.47;;;;;;;12.03;46.34;101722.75;1677416;85;21045;-71
2022/10/16 10:10:37;;;;;;;3.53;2.30;;;;;;;12.03;46.46;101720.90;1648123;85;21133;-71
2022/10/16 10:13:04;;;;;;;3.60;2.75;;;;;;;11.96;46.13;101713.70;1684396;84;21092;-72
2022/10/16 10:15:34;;;;;;;6.23;3.50;;;;;;;11.93;46.33;101715.39;1647117;85;21057;-71
2022/10/16 10:18:03;;;;;;;4.83;2.60;;;;;;;11.94;46.40;101713.03;1681872;83;21590;-72
2022/10/16 10:20:37;;;;;;;3.10;2.90;;;;;;;11.94;46.39;101711.22;1664513;84;21590;-72
2022/10/16 10:23:23;;;;;;;2.43;2.33;;;;;;;11.88;45.84;101707.34;1676383;85;21050;-71
2022/10/16 10:25:55;;;;;;;3.02;2.72;;;;;;;11.85;45.63;101688.95;1672843;84;22082;-71
2022/10/16 10:28:55;;;;;;;3.85;2.50;;;;;;;11.82;46.38;101686.59;1704082;82;21004;-71
2022/10/16 10:31:48;;;;;;;4.62;2.98;;;;;;;11.73;46.44;101686.74;1693961;82;21108;-73
2022/10/16 10:34:41;;;;;;;4.35;3.47;;;;;;;11.69;47.09;101679.55;1689388;82;21128;-71
2022/10/16 10:37:32;;;;;;;3.70;3.23;;;;;;;11.71;47.31;101684.23;1709311;82;21029;-72
2022/10/16 10:40:39;;;;;;;4.93;3.30;;;;;;;11.69;46.90;101679.55;1737013;82;21161;-72
2022/10/16 10:43:28;;;;;;;4.95;3.87;;;;;;;11.72;47.47;101681.08;1672901;84;21547;-70
2022/10/16 10:46:14;;;;;;;4.42;3.42;;;;;;;11.72;46.81;101677.08;1690656;84;21001;-72
2022/10/16 10:49:38;;;;;;;3.63;3.33;;;;;;;11.73;46.91;101682.23;1689008;84;21002;-72
2022/10/16 10:52:25;;;;;;;3.20;2.87;;;;;;;11.73;47.14;101674.22;1652441;85;21272;-71
2022/10/16 10:55:23;;;;;;;4.65;2.83;;;;;;;11.75;46.98;101679.40;1691117;84;21069;-72
2022/10/16 11:01:30;;;;;;;3.47;3.17;;;;;;;11.85;46.65;101684.12;1746295;79;22123;-72
2022/10/16 11:04:29;;;;;;;4.03;2.72;;;;;;;11.86;46.16;101687.11;1677011;84;21048;-72
2022/10/16 11:07:00;;;;;;;2.98;2.50;;;;;;;11.88;46.14;101683.29;1609975;88;21125;-70
2022/10/16 11:09:46;;;;;;;5.30;3.83;;;;;;;11.94;46.25;101697.00;1619351;86;21050;-72
2022/10/16 11:12:26;;;;;;;3.25;2.92;;;;;;;11.97;46.11;101694.02;1636306;86;22265;-71
2022/10/16 11:15:21;;;;;;;4.57;3.73;;;;;;;11.92;45.89;101692.33;1640967;86;21020;-71
2022/10/16 11:18:17;;;;;;;4.78;3.50;;;;;;;11.85;46.40;101690.28;1653233;84;21032;-72
2022/10/16 11:20:57;;;;;;;4.70;3.58;;;;;;;11.85;46.62;101687.61;1649622;85;21659;-71
2022/10/16 11:23:55;;;;;;;5.65;4.30;;;;;;;11.87;46.69;101691.46;1619240;87;21094;-73
2022/10/16 11:26:25;;;;;;;;;;;;;;;11.88;46.15;101699.32;1665906;85;21520;-71
2022/10/16 11:28:56;;;;;;;6.37;3.60;;;;;;;11.85;46.28;101698.30;1650739;85;20188;-72
2022/10/16 11:31:43;;;;;;;3.50;3.03;;;;;;;11.83;46.59;101703.48;1667982;84;21040;-73
2022/10/16 11:34:23;;;;;;;4.33;3.93;;;;;;;11.84;46.44;101699.80;1648770;84;21019;-73
2022/10/16 11:36:55;;;;;;;4.83;3.97;;;;;;;11.87;46.44;101698.97;1663252;83;21082;-73
2022/10/16 11:39:30;;;;;;;4.30;3.90;;;;;;;11.59;46.23;101650.83;1661501;85;21071;-72
2022/10/16 11:42:06;;;;;;;3.75;3.10;;;;;;;11.94;45.62;101713.03;1600725;87;21135;-72
2022/10/16 11:45:09;;;;;;;4.70;4.30;;;;;;;11.90;45.13;101706.35;1640121;86;21575;-72
2022/10/16 11:47:44;;;;;;;5.22;4.15;;;;;;;11.91;45.16;101698.69;1634874;86;21156;-72
2022/10/16 11:50:25;;;;;;;4.90;3.47;;;;;;;11.93;45.48;101703.36;1663517;85;21085;-72